Аэропорт: Жезказган. Жезказган

ICAO: UAKD

METAR:
2019/05/26 14:00
UAKD 261400Z 05006MPS CAVOK 18/M05 Q1023 R04/0///65 NOSIG RMK QFE733/0978
METAR:
2017/04/10 09:39
TAF TAF UAKD 101100Z 1009/1021 16012MPS 9999 SCT100